Lafayette Hill, Pennsylvania
Current Conditions -  °F | °C
As of 9:15 AM on Thursday 18 Dec 2014 (Local Time) from KLOM Reporting Station
Overcast Overcast  
Wind Chill: 31°   Ceiling: 3900
Heat Index: 36°   Visibility: 10mi
Dew Point: 25°   Wind: 6mph
Humidity: 65%   Direction: 290°WNW
Pressure: 30.06"   Gusts: NA
Location:  40.09°N, 75.25°W
Report Text: KLOM 181415Z AUTO 29005KT 10SM OVC039 02/M04 A3006 RMK AO1
Loading
Personal Weather Stations






























Interactive Weather Map New forecast layout! Learn more

10-Day Weather Forecast

Advertisements
Track Severe Weather on mobile